Oak Lodge, Oregon
Current Conditions -  °F | °C
As of 11:53 PM on Wednesday 28 Jan 2015 (Local Time) from KPDX Reporting Station
Overcast Overcast  
Wind Chill: 45°   Ceiling: 12000
Heat Index: 45°   Visibility: 10mi
Dew Point: 43°   Wind: 3mph
Humidity: 93%   Direction: 90°E
Pressure: 30.34"   Gusts: NA
Location:  45.4079°N, 122.613°W
Report Text: KPDX 290753Z 09003KT 10SM FEW009 BKN120 OVC210 07/06 A3034 RMK AO2 SLP272 T00720061 401280072
Loading
Personal Weather Stations






























Interactive Weather Map New forecast layout! Learn more

10-Day Weather Forecast

Advertisements
Track Severe Weather on mobile